sensor_id;sensor_type;location;lat;lon;timestamp;temperature;humidity
4985;DHT22;2509;49.902;8.600;2023-04-21T00:00:43;7.90;99.90
4985;DHT22;2509;49.902;8.600;2023-04-21T00:03:44;7.80;99.90
4985;DHT22;2509;49.902;8.600;2023-04-21T00:06:47;7.80;99.90
4985;DHT22;2509;49.902;8.600;2023-04-21T00:09:50;7.60;99.90
4985;DHT22;2509;49.902;8.600;2023-04-21T00:12:53;7.50;99.90
4985;DHT22;2509;49.902;8.600;2023-04-21T00:15:54;7.60;99.90
4985;DHT22;2509;49.902;8.600;2023-04-21T00:18:56;7.60;99.90
4985;DHT22;2509;49.902;8.600;2023-04-21T00:21:58;7.60;99.90
4985;DHT22;2509;49.902;8.600;2023-04-21T00:25:00;7.70;99.90
4985;DHT22;2509;49.902;8.600;2023-04-21T00:28:04;7.60;99.90
4985;DHT22;2509;49.902;8.600;2023-04-21T00:31:05;7.50;99.90
4985;DHT22;2509;49.902;8.600;2023-04-21T00:34:08;7.40;99.90
4985;DHT22;2509;49.902;8.600;2023-04-21T00:37:10;7.50;99.90
4985;DHT22;2509;49.902;8.600;2023-04-21T00:40:12;7.60;99.90
4985;DHT22;2509;49.902;8.600;2023-04-21T00:43:15;7.60;99.90
4985;DHT22;2509;49.902;8.600;2023-04-21T00:46:17;7.50;99.90
4985;DHT22;2509;49.902;8.600;2023-04-21T00:49:18;7.40;99.90
4985;DHT22;2509;49.902;8.600;2023-04-21T00:52:20;7.40;99.90
4985;DHT22;2509;49.902;8.600;2023-04-21T00:55:22;7.30;99.90
4985;DHT22;2509;49.902;8.600;2023-04-21T00:58:26;7.40;99.90
4985;DHT22;2509;49.902;8.600;2023-04-21T01:01:28;7.40;99.90
4985;DHT22;2509;49.902;8.600;2023-04-21T01:04:30;7.40;99.90
4985;DHT22;2509;49.902;8.600;2023-04-21T01:07:36;7.40;99.90
4985;DHT22;2509;49.902;8.600;2023-04-21T01:10:38;7.40;99.90
4985;DHT22;2509;49.902;8.600;2023-04-21T01:13:41;7.50;99.90
4985;DHT22;2509;49.902;8.600;2023-04-21T01:16:43;7.50;99.90
4985;DHT22;2509;49.902;8.600;2023-04-21T01:19:46;7.40;99.90
4985;DHT22;2509;49.902;8.600;2023-04-21T01:22:49;7.40;99.90
4985;DHT22;2509;49.902;8.600;2023-04-21T01:25:51;7.50;99.90
4985;DHT22;2509;49.902;8.600;2023-04-21T01:28:55;7.40;99.90
4985;DHT22;2509;49.902;8.600;2023-04-21T01:31:57;7.40;99.90
4985;DHT22;2509;49.902;8.600;2023-04-21T01:34:59;7.30;99.90
4985;DHT22;2509;49.902;8.600;2023-04-21T01:38:02;7.40;99.90
4985;DHT22;2509;49.902;8.600;2023-04-21T01:41:04;7.40;99.90
4985;DHT22;2509;49.902;8.600;2023-04-21T01:44:06;7.40;99.90
4985;DHT22;2509;49.902;8.600;2023-04-21T01:47:08;7.40;99.90
4985;DHT22;2509;49.902;8.600;2023-04-21T01:50:10;7.40;99.90
4985;DHT22;2509;49.902;8.600;2023-04-21T01:53:14;7.40;99.90
4985;DHT22;2509;49.902;8.600;2023-04-21T01:56:15;7.30;99.90
4985;DHT22;2509;49.902;8.600;2023-04-21T01:59:18;7.30;99.90
4985;DHT22;2509;49.902;8.600;2023-04-21T02:02:20;7.30;99.90
4985;DHT22;2509;49.902;8.600;2023-04-21T02:05:22;7.30;99.90
4985;DHT22;2509;49.902;8.600;2023-04-21T02:08:25;7.40;99.90
4985;DHT22;2509;49.902;8.600;2023-04-21T02:11:27;7.40;99.90
4985;DHT22;2509;49.902;8.600;2023-04-21T02:14:28;7.30;99.90
4985;DHT22;2509;49.902;8.600;2023-04-21T02:17:30;7.30;99.90
4985;DHT22;2509;49.902;8.600;2023-04-21T02:20:32;7.30;99.90
4985;DHT22;2509;49.902;8.600;2023-04-21T02:23:35;7.30;99.90
4985;DHT22;2509;49.902;8.600;2023-04-21T02:26:37;7.30;99.90
4985;DHT22;2509;49.902;8.600;2023-04-21T02:29:39;7.30;99.90
4985;DHT22;2509;49.902;8.600;2023-04-21T02:32:40;7.30;99.90
4985;DHT22;2509;49.902;8.600;2023-04-21T02:35:42;7.30;99.90
4985;DHT22;2509;49.902;8.600;2023-04-21T02:38:45;7.30;99.90
4985;DHT22;2509;49.902;8.600;2023-04-21T02:41:47;7.30;99.90
4985;DHT22;2509;49.902;8.600;2023-04-21T02:44:49;7.40;99.90
4985;DHT22;2509;49.902;8.600;2023-04-21T02:47:51;7.40;99.90
4985;DHT22;2509;49.902;8.600;2023-04-21T02:50:53;7.40;99.90
4985;DHT22;2509;49.902;8.600;2023-04-21T02:53:56;7.30;99.90
4985;DHT22;2509;49.902;8.600;2023-04-21T02:56:57;7.30;99.90
4985;DHT22;2509;49.902;8.600;2023-04-21T02:59:59;7.30;99.90
4985;DHT22;2509;49.902;8.600;2023-04-21T03:03:01;7.20;99.90
4985;DHT22;2509;49.902;8.600;2023-04-21T03:06:04;7.20;99.90
4985;DHT22;2509;49.902;8.600;2023-04-21T03:09:07;7.20;99.90
4985;DHT22;2509;49.902;8.600;2023-04-21T03:12:09;7.20;99.90
4985;DHT22;2509;49.902;8.600;2023-04-21T03:15:11;7.20;99.90
4985;DHT22;2509;49.902;8.600;2023-04-21T03:18:13;7.30;99.90
4985;DHT22;2509;49.902;8.600;2023-04-21T03:21:15;7.30;99.90
4985;DHT22;2509;49.902;8.600;2023-04-21T03:24:18;7.30;99.90
4985;DHT22;2509;49.902;8.600;2023-04-21T03:27:20;7.30;99.90
4985;DHT22;2509;49.902;8.600;2023-04-21T03:30:22;7.30;99.90
4985;DHT22;2509;49.902;8.600;2023-04-21T03:33:25;7.20;99.90
4985;DHT22;2509;49.902;8.600;2023-04-21T03:36:27;7.20;99.90
4985;DHT22;2509;49.902;8.600;2023-04-21T03:39:30;7.20;99.90
4985;DHT22;2509;49.902;8.600;2023-04-21T03:42:31;7.20;99.90
4985;DHT22;2509;49.902;8.600;2023-04-21T03:45:34;7.10;99.90
4985;DHT22;2509;49.902;8.600;2023-04-21T03:48:36;7.10;99.90
4985;DHT22;2509;49.902;8.600;2023-04-21T03:51:38;7.10;99.90
4985;DHT22;2509;49.902;8.600;2023-04-21T03:54:41;7.10;99.90
4985;DHT22;2509;49.902;8.600;2023-04-21T03:57:42;7.10;99.90
4985;DHT22;2509;49.902;8.600;2023-04-21T04:00:44;7.10;99.90
4985;DHT22;2509;49.902;8.600;2023-04-21T04:03:46;7.10;99.90
4985;DHT22;2509;49.902;8.600;2023-04-21T04:06:48;7.10;99.90
4985;DHT22;2509;49.902;8.600;2023-04-21T04:09:51;7.10;99.90
4985;DHT22;2509;49.902;8.600;2023-04-21T04:12:52;7.10;99.90
4985;DHT22;2509;49.902;8.600;2023-04-21T04:15:56;7.10;99.90
4985;DHT22;2509;49.902;8.600;2023-04-21T04:18:58;7.10;99.90
4985;DHT22;2509;49.902;8.600;2023-04-21T04:22:00;7.20;99.90
4985;DHT22;2509;49.902;8.600;2023-04-21T04:25:04;7.10;99.90
4985;DHT22;2509;49.902;8.600;2023-04-21T04:28:05;7.10;99.90
4985;DHT22;2509;49.902;8.600;2023-04-21T04:31:08;7.00;99.90
4985;DHT22;2509;49.902;8.600;2023-04-21T04:34:10;7.10;99.90
4985;DHT22;2509;49.902;8.600;2023-04-21T04:37:12;7.10;99.90
4985;DHT22;2509;49.902;8.600;2023-04-21T04:40:15;7.00;99.90
4985;DHT22;2509;49.902;8.600;2023-04-21T04:43:17;7.00;99.90
4985;DHT22;2509;49.902;8.600;2023-04-21T04:46:18;7.10;99.90
4985;DHT22;2509;49.902;8.600;2023-04-21T04:49:20;7.10;99.90
4985;DHT22;2509;49.902;8.600;2023-04-21T04:52:22;7.10;99.90
4985;DHT22;2509;49.902;8.600;2023-04-21T04:55:25;7.10;99.90
4985;DHT22;2509;49.902;8.600;2023-04-21T04:58:27;7.10;99.90
4985;DHT22;2509;49.902;8.600;2023-04-21T05:01:29;7.10;99.90
4985;DHT22;2509;49.902;8.600;2023-04-21T05:04:32;7.10;99.90
4985;DHT22;2509;49.902;8.600;2023-04-21T05:07:34;7.10;99.90
4985;DHT22;2509;49.902;8.600;2023-04-21T05:10:37;7.20;99.90
4985;DHT22;2509;49.902;8.600;2023-04-21T05:13:39;7.10;99.90
4985;DHT22;2509;49.902;8.600;2023-04-21T05:16:42;7.10;99.90
4985;DHT22;2509;49.902;8.600;2023-04-21T05:19:44;7.10;99.90
4985;DHT22;2509;49.902;8.600;2023-04-21T05:22:45;7.10;99.90
4985;DHT22;2509;49.902;8.600;2023-04-21T05:25:49;7.10;99.90
4985;DHT22;2509;49.902;8.600;2023-04-21T05:28:51;7.20;99.90
4985;DHT22;2509;49.902;8.600;2023-04-21T05:31:52;7.20;99.90
4985;DHT22;2509;49.902;8.600;2023-04-21T05:34:54;7.20;99.90
4985;DHT22;2509;49.902;8.600;2023-04-21T05:37:56;7.20;99.90
4985;DHT22;2509;49.902;8.600;2023-04-21T05:40:59;7.30;99.90
4985;DHT22;2509;49.902;8.600;2023-04-21T05:44:01;7.30;99.90
4985;DHT22;2509;49.902;8.600;2023-04-21T05:47:03;7.30;99.90
4985;DHT22;2509;49.902;8.600;2023-04-21T05:50:05;7.40;99.90
4985;DHT22;2509;49.902;8.600;2023-04-21T05:53:07;7.40;99.90
4985;DHT22;2509;49.902;8.600;2023-04-21T05:56:11;7.50;99.90
4985;DHT22;2509;49.902;8.600;2023-04-21T05:59:13;7.50;99.90
4985;DHT22;2509;49.902;8.600;2023-04-21T06:02:15;7.60;99.90
4985;DHT22;2509;49.902;8.600;2023-04-21T06:05:17;7.70;99.90
4985;DHT22;2509;49.902;8.600;2023-04-21T06:08:19;7.80;99.90
4985;DHT22;2509;49.902;8.600;2023-04-21T06:11:22;7.80;99.90
4985;DHT22;2509;49.902;8.600;2023-04-21T06:14:24;7.80;99.90
4985;DHT22;2509;49.902;8.600;2023-04-21T06:17:26;7.90;99.90
4985;DHT22;2509;49.902;8.600;2023-04-21T06:20:27;7.90;99.90
4985;DHT22;2509;49.902;8.600;2023-04-21T06:23:29;7.90;99.90
4985;DHT22;2509;49.902;8.600;2023-04-21T06:26:32;8.00;99.90
4985;DHT22;2509;49.902;8.600;2023-04-21T06:30:03;8.10;99.90
4985;DHT22;2509;49.902;8.600;2023-04-21T06:33:15;8.10;99.90
4985;DHT22;2509;49.902;8.600;2023-04-21T06:36:25;8.20;99.90
4985;DHT22;2509;49.902;8.600;2023-04-21T06:39:27;8.20;99.90
4985;DHT22;2509;49.902;8.600;2023-04-21T06:42:30;8.30;99.90
4985;DHT22;2509;49.902;8.600;2023-04-21T06:45:32;8.50;99.90
4985;DHT22;2509;49.902;8.600;2023-04-21T06:48:33;8.60;99.90
4985;DHT22;2509;49.902;8.600;2023-04-21T06:51:35;8.70;99.90
4985;DHT22;2509;49.902;8.600;2023-04-21T06:54:37;8.70;99.90
4985;DHT22;2509;49.902;8.600;2023-04-21T06:57:41;8.70;99.90
4985;DHT22;2509;49.902;8.600;2023-04-21T07:00:42;8.80;99.90
4985;DHT22;2509;49.902;8.600;2023-04-21T07:03:44;8.80;99.90
4985;DHT22;2509;49.902;8.600;2023-04-21T07:06:46;8.90;99.90
4985;DHT22;2509;49.902;8.600;2023-04-21T07:09:49;8.90;99.90
4985;DHT22;2509;49.902;8.600;2023-04-21T07:12:52;9.10;99.90
4985;DHT22;2509;49.902;8.600;2023-04-21T07:15:54;9.30;99.90
4985;DHT22;2509;49.902;8.600;2023-04-21T07:18:56;9.40;99.90
4985;DHT22;2509;49.902;8.600;2023-04-21T07:21:58;9.50;99.90
4985;DHT22;2509;49.902;8.600;2023-04-21T07:24:59;9.60;99.90
4985;DHT22;2509;49.902;8.600;2023-04-21T07:28:03;9.80;99.90
4985;DHT22;2509;49.902;8.600;2023-04-21T07:31:04;9.90;99.90
4985;DHT22;2509;49.902;8.600;2023-04-21T07:34:06;9.90;99.90
4985;DHT22;2509;49.902;8.600;2023-04-21T07:37:08;9.90;99.90
4985;DHT22;2509;49.902;8.600;2023-04-21T07:40:10;9.90;99.90
4985;DHT22;2509;49.902;8.600;2023-04-21T07:43:14;9.90;99.90
4985;DHT22;2509;49.902;8.600;2023-04-21T07:46:16;9.90;99.90
4985;DHT22;2509;49.902;8.600;2023-04-21T07:49:17;9.90;99.90
4985;DHT22;2509;49.902;8.600;2023-04-21T07:52:19;9.90;99.90
4985;DHT22;2509;49.902;8.600;2023-04-21T07:55:21;9.90;99.90
4985;DHT22;2509;49.902;8.600;2023-04-21T07:58:24;10.00;99.90
4985;DHT22;2509;49.902;8.600;2023-04-21T08:01:26;10.00;99.90
4985;DHT22;2509;49.902;8.600;2023-04-21T08:04:28;10.00;99.90
4985;DHT22;2509;49.902;8.600;2023-04-21T08:07:29;10.10;99.90
4985;DHT22;2509;49.902;8.600;2023-04-21T08:10:31;10.30;99.90
4985;DHT22;2509;49.902;8.600;2023-04-21T08:13:34;10.40;99.90
4985;DHT22;2509;49.902;8.600;2023-04-21T08:16:36;10.50;99.90
4985;DHT22;2509;49.902;8.600;2023-04-21T08:19:38;10.60;99.90
4985;DHT22;2509;49.902;8.600;2023-04-21T08:22:40;10.80;99.90
4985;DHT22;2509;49.902;8.600;2023-04-21T08:25:41;10.90;99.90
4985;DHT22;2509;49.902;8.600;2023-04-21T08:28:45;11.00;99.90
4985;DHT22;2509;49.902;8.600;2023-04-21T08:31:48;11.20;99.90
4985;DHT22;2509;49.902;8.600;2023-04-21T08:34:50;11.40;99.90
4985;DHT22;2509;49.902;8.600;2023-04-21T08:37:52;11.60;99.90
4985;DHT22;2509;49.902;8.600;2023-04-21T08:40:55;11.70;99.90
4985;DHT22;2509;49.902;8.600;2023-04-21T08:44:00;11.70;99.90
4985;DHT22;2509;49.902;8.600;2023-04-21T08:47:04;11.80;99.90
4985;DHT22;2509;49.902;8.600;2023-04-21T08:50:11;11.80;99.90
4985;DHT22;2509;49.902;8.600;2023-04-21T08:53:13;11.90;99.90
4985;DHT22;2509;49.902;8.600;2023-04-21T08:56:16;11.90;99.90
4985;DHT22;2509;49.902;8.600;2023-04-21T08:59:19;12.00;99.90
4985;DHT22;2509;49.902;8.600;2023-04-21T09:02:21;12.10;99.90
4985;DHT22;2509;49.902;8.600;2023-04-21T09:05:24;12.30;99.90
4985;DHT22;2509;49.902;8.600;2023-04-21T09:08:27;12.40;99.90
4985;DHT22;2509;49.902;8.600;2023-04-21T09:11:32;12.50;99.90
4985;DHT22;2509;49.902;8.600;2023-04-21T09:14:35;12.70;99.90
4985;DHT22;2509;49.902;8.600;2023-04-21T09:17:37;12.90;99.90
4985;DHT22;2509;49.902;8.600;2023-04-21T09:20:39;13.20;99.90
4985;DHT22;2509;49.902;8.600;2023-04-21T09:23:42;13.20;99.90
4985;DHT22;2509;49.902;8.600;2023-04-21T09:26:44;13.10;99.90
4985;DHT22;2509;49.902;8.600;2023-04-21T09:29:47;13.20;99.90
4985;DHT22;2509;49.902;8.600;2023-04-21T09:32:49;13.10;99.90
4985;DHT22;2509;49.902;8.600;2023-04-21T09:35:51;13.10;99.90
4985;DHT22;2509;49.902;8.600;2023-04-21T09:38:56;13.30;99.90
4985;DHT22;2509;49.902;8.600;2023-04-21T09:41:58;13.60;99.90
4985;DHT22;2509;49.902;8.600;2023-04-21T09:45:03;13.70;99.90
4985;DHT22;2509;49.902;8.600;2023-04-21T09:48:07;13.70;99.90
4985;DHT22;2509;49.902;8.600;2023-04-21T09:51:13;13.70;99.90
4985;DHT22;2509;49.902;8.600;2023-04-21T09:54:16;13.80;99.90
4985;DHT22;2509;49.902;8.600;2023-04-21T09:57:20;13.70;99.90
4985;DHT22;2509;49.902;8.600;2023-04-21T10:00:28;13.70;99.90
4985;DHT22;2509;49.902;8.600;2023-04-21T10:03:31;14.00;99.90
4985;DHT22;2509;49.902;8.600;2023-04-21T10:06:33;14.50;99.90
4985;DHT22;2509;49.902;8.600;2023-04-21T10:09:39;14.60;99.90
4985;DHT22;2509;49.902;8.600;2023-04-21T10:12:43;14.70;99.90
4985;DHT22;2509;49.902;8.600;2023-04-21T10:15:47;14.90;99.90
4985;DHT22;2509;49.902;8.600;2023-04-21T10:18:49;15.10;99.90
4985;DHT22;2509;49.902;8.600;2023-04-21T10:21:54;15.40;99.90
4985;DHT22;2509;49.902;8.600;2023-04-21T10:24:57;15.70;99.90
4985;DHT22;2509;49.902;8.600;2023-04-21T10:27:59;15.80;99.90
4985;DHT22;2509;49.902;8.600;2023-04-21T10:31:16;16.00;99.90
4985;DHT22;2509;49.902;8.600;2023-04-21T10:34:28;16.10;99.90
4985;DHT22;2509;49.902;8.600;2023-04-21T10:37:30;16.20;99.90
4985;DHT22;2509;49.902;8.600;2023-04-21T10:40:33;16.10;99.90
4985;DHT22;2509;49.902;8.600;2023-04-21T10:43:42;16.40;99.90
4985;DHT22;2509;49.902;8.600;2023-04-21T10:46:47;16.40;99.90
4985;DHT22;2509;49.902;8.600;2023-04-21T10:49:49;16.60;99.90
4985;DHT22;2509;49.902;8.600;2023-04-21T10:52:53;16.90;99.90
4985;DHT22;2509;49.902;8.600;2023-04-21T10:55:55;17.10;99.90
4985;DHT22;2509;49.902;8.600;2023-04-21T10:58:58;17.30;99.90
4985;DHT22;2509;49.902;8.600;2023-04-21T11:02:03;17.60;99.90
4985;DHT22;2509;49.902;8.600;2023-04-21T11:05:08;17.50;99.90
4985;DHT22;2509;49.902;8.600;2023-04-21T11:08:11;17.70;99.90
4985;DHT22;2509;49.902;8.600;2023-04-21T11:11:20;17.80;99.90
4985;DHT22;2509;49.902;8.600;2023-04-21T11:14:32;17.90;99.90
4985;DHT22;2509;49.902;8.600;2023-04-21T11:17:38;18.20;99.90
4985;DHT22;2509;49.902;8.600;2023-04-21T11:20:48;18.00;99.90
4985;DHT22;2509;49.902;8.600;2023-04-21T11:23:54;17.90;99.90
4985;DHT22;2509;49.902;8.600;2023-04-21T11:26:58;17.90;99.90
4985;DHT22;2509;49.902;8.600;2023-04-21T11:30:04;18.40;99.90
4985;DHT22;2509;49.902;8.600;2023-04-21T11:33:12;19.00;99.90
4985;DHT22;2509;49.902;8.600;2023-04-21T11:36:20;19.30;99.90
4985;DHT22;2509;49.902;8.600;2023-04-21T11:39:22;18.90;99.90
4985;DHT22;2509;49.902;8.600;2023-04-21T11:42:27;18.60;99.90
4985;DHT22;2509;49.902;8.600;2023-04-21T11:45:29;19.30;99.90
4985;DHT22;2509;49.902;8.600;2023-04-21T11:48:36;19.80;99.90
4985;DHT22;2509;49.902;8.600;2023-04-21T11:51:42;19.90;99.90
4985;DHT22;2509;49.902;8.600;2023-04-21T11:54:46;20.20;99.90
4985;DHT22;2509;49.902;8.600;2023-04-21T11:57:51;20.50;99.90
4985;DHT22;2509;49.902;8.600;2023-04-21T12:01:10;20.40;99.90
4985;DHT22;2509;49.902;8.600;2023-04-21T12:04:17;20.10;99.90
4985;DHT22;2509;49.902;8.600;2023-04-21T12:07:21;20.80;99.90
4985;DHT22;2509;49.902;8.600;2023-04-21T12:10:23;20.90;99.90
4985;DHT22;2509;49.902;8.600;2023-04-21T12:13:26;20.40;99.90
4985;DHT22;2509;49.902;8.600;2023-04-21T12:16:28;20.90;99.90
4985;DHT22;2509;49.902;8.600;2023-04-21T12:19:39;21.40;99.90
4985;DHT22;2509;49.902;8.600;2023-04-21T12:22:41;22.00;99.90
4985;DHT22;2509;49.902;8.600;2023-04-21T12:25:43;21.70;99.90
4985;DHT22;2509;49.902;8.600;2023-04-21T12:28:46;20.70;99.90
4985;DHT22;2509;49.902;8.600;2023-04-21T12:31:48;20.60;99.90
4985;DHT22;2509;49.902;8.600;2023-04-21T12:34:51;21.10;99.90
4985;DHT22;2509;49.902;8.600;2023-04-21T12:37:53;21.30;99.90
4985;DHT22;2509;49.902;8.600;2023-04-21T12:40:54;21.70;99.90
4985;DHT22;2509;49.902;8.600;2023-04-21T12:43:56;21.90;99.90
4985;DHT22;2509;49.902;8.600;2023-04-21T12:46:58;20.90;99.90
4985;DHT22;2509;49.902;8.600;2023-04-21T12:50:01;21.40;99.90
4985;DHT22;2509;49.902;8.600;2023-04-21T12:53:03;20.70;99.90
4985;DHT22;2509;49.902;8.600;2023-04-21T12:56:05;21.40;99.90
4985;DHT22;2509;49.902;8.600;2023-04-21T12:59:07;22.20;99.90
4985;DHT22;2509;49.902;8.600;2023-04-21T13:02:11;22.00;99.90
4985;DHT22;2509;49.902;8.600;2023-04-21T13:05:14;22.20;99.90
4985;DHT22;2509;49.902;8.600;2023-04-21T13:08:16;22.50;99.90
4985;DHT22;2509;49.902;8.600;2023-04-21T13:11:17;23.00;99.50
4985;DHT22;2509;49.902;8.600;2023-04-21T13:14:19;23.30;99.10
4985;DHT22;2509;49.902;8.600;2023-04-21T13:17:21;23.40;96.40
4985;DHT22;2509;49.902;8.600;2023-04-21T13:20:25;22.80;98.30
4985;DHT22;2509;49.902;8.600;2023-04-21T13:23:26;23.00;96.30
4985;DHT22;2509;49.902;8.600;2023-04-21T13:26:31;22.80;98.40
4985;DHT22;2509;49.902;8.600;2023-04-21T13:29:34;22.60;97.20
4985;DHT22;2509;49.902;8.600;2023-04-21T13:32:36;22.60;98.40
4985;DHT22;2509;49.902;8.600;2023-04-21T13:35:40;23.10;97.20
4985;DHT22;2509;49.902;8.600;2023-04-21T13:38:41;23.50;94.60
4985;DHT22;2509;49.902;8.600;2023-04-21T13:41:43;23.00;93.90
4985;DHT22;2509;49.902;8.600;2023-04-21T13:44:45;22.10;96.70
4985;DHT22;2509;49.902;8.600;2023-04-21T13:47:47;21.30;98.60
4985;DHT22;2509;49.902;8.600;2023-04-21T13:50:50;21.80;98.20
4985;DHT22;2509;49.902;8.600;2023-04-21T13:53:52;21.60;97.00
4985;DHT22;2509;49.902;8.600;2023-04-21T13:56:53;21.80;96.60
4985;DHT22;2509;49.902;8.600;2023-04-21T13:59:56;21.80;97.10
4985;DHT22;2509;49.902;8.600;2023-04-21T14:02:58;21.70;97.20
4985;DHT22;2509;49.902;8.600;2023-04-21T14:06:02;22.30;97.20
4985;DHT22;2509;49.902;8.600;2023-04-21T14:09:03;22.30;96.20
4985;DHT22;2509;49.902;8.600;2023-04-21T14:12:05;23.00;95.70
4985;DHT22;2509;49.902;8.600;2023-04-21T14:15:08;23.50;93.30
4985;DHT22;2509;49.902;8.600;2023-04-21T14:18:09;23.80;92.40
4985;DHT22;2509;49.902;8.600;2023-04-21T14:21:13;23.90;92.00
4985;DHT22;2509;49.902;8.600;2023-04-21T14:24:14;23.70;91.70
4985;DHT22;2509;49.902;8.600;2023-04-21T14:27:16;24.30;91.30
4985;DHT22;2509;49.902;8.600;2023-04-21T14:30:18;24.30;90.10
4985;DHT22;2509;49.902;8.600;2023-04-21T14:33:20;24.40;89.20
4985;DHT22;2509;49.902;8.600;2023-04-21T14:36:26;23.80;89.40
4985;DHT22;2509;49.902;8.600;2023-04-21T14:39:28;24.60;90.50
4985;DHT22;2509;49.902;8.600;2023-04-21T14:42:31;25.40;88.60
4985;DHT22;2509;49.902;8.600;2023-04-21T14:45:33;25.50;86.30
4985;DHT22;2509;49.902;8.600;2023-04-21T14:48:35;25.10;87.80
4985;DHT22;2509;49.902;8.600;2023-04-21T14:51:38;25.20;87.80
4985;DHT22;2509;49.902;8.600;2023-04-21T14:54:41;24.70;87.10
4985;DHT22;2509;49.902;8.600;2023-04-21T14:57:43;24.50;88.60
4985;DHT22;2509;49.902;8.600;2023-04-21T15:00:46;23.90;89.50
4985;DHT22;2509;49.902;8.600;2023-04-21T15:03:48;23.90;89.90
4985;DHT22;2509;49.902;8.600;2023-04-21T15:06:51;23.70;90.40
4985;DHT22;2509;49.902;8.600;2023-04-21T15:09:53;24.20;89.80
4985;DHT22;2509;49.902;8.600;2023-04-21T15:12:56;25.00;90.30
4985;DHT22;2509;49.902;8.600;2023-04-21T15:15:58;25.40;87.80
4985;DHT22;2509;49.902;8.600;2023-04-21T15:18:59;25.20;88.50
4985;DHT22;2509;49.902;8.600;2023-04-21T15:22:03;25.10;89.30
4985;DHT22;2509;49.902;8.600;2023-04-21T15:25:05;24.70;89.70
4985;DHT22;2509;49.902;8.600;2023-04-21T15:28:07;24.00;90.70
4985;DHT22;2509;49.902;8.600;2023-04-21T15:31:09;23.50;91.90
4985;DHT22;2509;49.902;8.600;2023-04-21T15:34:11;23.50;93.20
4985;DHT22;2509;49.902;8.600;2023-04-21T15:37:14;22.60;93.50
4985;DHT22;2509;49.902;8.600;2023-04-21T15:40:18;22.40;95.60
4985;DHT22;2509;49.902;8.600;2023-04-21T15:43:20;21.80;94.60
4985;DHT22;2509;49.902;8.600;2023-04-21T15:46:22;21.50;95.20
4985;DHT22;2509;49.902;8.600;2023-04-21T15:49:23;21.20;96.30
4985;DHT22;2509;49.902;8.600;2023-04-21T15:52:27;21.40;96.70
4985;DHT22;2509;49.902;8.600;2023-04-21T15:55:29;21.60;96.80
4985;DHT22;2509;49.902;8.600;2023-04-21T15:58:30;21.30;97.80
4985;DHT22;2509;49.902;8.600;2023-04-21T16:01:32;21.10;98.10
4985;DHT22;2509;49.902;8.600;2023-04-21T16:04:34;20.80;98.50
4985;DHT22;2509;49.902;8.600;2023-04-21T16:07:37;20.70;98.80
4985;DHT22;2509;49.902;8.600;2023-04-21T16:10:41;21.00;98.60
4985;DHT22;2509;49.902;8.600;2023-04-21T16:13:49;21.00;98.60
4985;DHT22;2509;49.902;8.600;2023-04-21T16:16:52;20.90;98.90
4985;DHT22;2509;49.902;8.600;2023-04-21T16:19:54;21.00;99.00
4985;DHT22;2509;49.902;8.600;2023-04-21T16:22:57;20.90;99.30
4985;DHT22;2509;49.902;8.600;2023-04-21T16:25:59;20.80;99.40
4985;DHT22;2509;49.902;8.600;2023-04-21T16:29:01;20.70;99.90
4985;DHT22;2509;49.902;8.600;2023-04-21T16:32:03;20.60;99.90
4985;DHT22;2509;49.902;8.600;2023-04-21T16:35:06;20.50;99.90
4985;DHT22;2509;49.902;8.600;2023-04-21T16:38:09;20.30;99.90
4985;DHT22;2509;49.902;8.600;2023-04-21T16:41:11;20.20;99.90
4985;DHT22;2509;49.902;8.600;2023-04-21T16:44:13;20.10;99.90
4985;DHT22;2509;49.902;8.600;2023-04-21T16:47:15;20.00;99.90
4985;DHT22;2509;49.902;8.600;2023-04-21T16:50:17;20.00;99.90
4985;DHT22;2509;49.902;8.600;2023-04-21T16:53:20;19.90;99.90
4985;DHT22;2509;49.902;8.600;2023-04-21T16:56:24;19.80;99.90
4985;DHT22;2509;49.902;8.600;2023-04-21T16:59:26;19.70;99.90
4985;DHT22;2509;49.902;8.600;2023-04-21T17:02:28;19.70;99.90
4985;DHT22;2509;49.902;8.600;2023-04-21T17:05:30;19.60;99.90
4985;DHT22;2509;49.902;8.600;2023-04-21T17:08:33;19.50;99.90
4985;DHT22;2509;49.902;8.600;2023-04-21T17:11:35;19.40;99.90
4985;DHT22;2509;49.902;8.600;2023-04-21T17:14:37;19.30;99.90
4985;DHT22;2509;49.902;8.600;2023-04-21T17:17:40;19.30;99.90
4985;DHT22;2509;49.902;8.600;2023-04-21T17:20:43;19.30;99.90
4985;DHT22;2509;49.902;8.600;2023-04-21T17:23:46;19.20;99.90
4985;DHT22;2509;49.902;8.600;2023-04-21T17:26:49;19.10;99.90
4985;DHT22;2509;49.902;8.600;2023-04-21T17:29:51;19.00;99.90
4985;DHT22;2509;49.902;8.600;2023-04-21T17:32:53;19.00;99.90
4985;DHT22;2509;49.902;8.600;2023-04-21T17:35:55;18.90;99.90
4985;DHT22;2509;49.902;8.600;2023-04-21T17:38:58;18.50;98.90
4985;DHT22;2509;49.902;8.600;2023-04-21T17:42:00;18.00;98.60
4985;DHT22;2509;49.902;8.600;2023-04-21T17:45:02;17.60;99.20
4985;DHT22;2509;49.902;8.600;2023-04-21T17:48:05;17.40;99.80
4985;DHT22;2509;49.902;8.600;2023-04-21T17:51:07;17.20;99.90
4985;DHT22;2509;49.902;8.600;2023-04-21T17:54:10;17.20;99.90
4985;DHT22;2509;49.902;8.600;2023-04-21T17:57:12;17.10;99.90
4985;DHT22;2509;49.902;8.600;2023-04-21T18:00:14;17.00;99.90
4985;DHT22;2509;49.902;8.600;2023-04-21T18:03:17;17.10;99.90
4985;DHT22;2509;49.902;8.600;2023-04-21T18:06:19;17.10;99.90
4985;DHT22;2509;49.902;8.600;2023-04-21T18:09:23;17.10;99.90
4985;DHT22;2509;49.902;8.600;2023-04-21T18:12:25;17.00;99.90
4985;DHT22;2509;49.902;8.600;2023-04-21T18:15:28;16.90;99.90
4985;DHT22;2509;49.902;8.600;2023-04-21T18:18:29;16.80;99.90
4985;DHT22;2509;49.902;8.600;2023-04-21T18:21:31;16.80;99.90
4985;DHT22;2509;49.902;8.600;2023-04-21T18:24:35;16.70;99.90
4985;DHT22;2509;49.902;8.600;2023-04-21T18:27:37;16.70;99.90
4985;DHT22;2509;49.902;8.600;2023-04-21T18:30:39;16.60;99.90
4985;DHT22;2509;49.902;8.600;2023-04-21T18:33:40;16.50;99.90
4985;DHT22;2509;49.902;8.600;2023-04-21T18:36:42;16.40;99.90
4985;DHT22;2509;49.902;8.600;2023-04-21T18:39:45;16.40;99.90
4985;DHT22;2509;49.902;8.600;2023-04-21T18:42:47;16.40;99.90
4985;DHT22;2509;49.902;8.600;2023-04-21T18:45:49;16.30;99.90
4985;DHT22;2509;49.902;8.600;2023-04-21T18:48:50;16.20;99.90
4985;DHT22;2509;49.902;8.600;2023-04-21T18:51:52;16.10;99.90
4985;DHT22;2509;49.902;8.600;2023-04-21T18:54:55;16.00;99.90
4985;DHT22;2509;49.902;8.600;2023-04-21T18:57:57;15.90;99.90
4985;DHT22;2509;49.902;8.600;2023-04-21T19:00:59;15.80;99.90
4985;DHT22;2509;49.902;8.600;2023-04-21T19:04:01;15.70;99.90
4985;DHT22;2509;49.902;8.600;2023-04-21T19:07:02;15.70;99.90
4985;DHT22;2509;49.902;8.600;2023-04-21T19:10:09;15.70;99.90
4985;DHT22;2509;49.902;8.600;2023-04-21T19:13:11;15.70;99.90
4985;DHT22;2509;49.902;8.600;2023-04-21T19:16:13;15.60;99.90
4985;DHT22;2509;49.902;8.600;2023-04-21T19:19:15;15.50;99.90
4985;DHT22;2509;49.902;8.600;2023-04-21T19:22:18;15.50;99.90
4985;DHT22;2509;49.902;8.600;2023-04-21T19:25:21;15.50;99.90
4985;DHT22;2509;49.902;8.600;2023-04-21T19:28:23;15.40;99.90
4985;DHT22;2509;49.902;8.600;2023-04-21T19:31:25;15.40;99.90
4985;DHT22;2509;49.902;8.600;2023-04-21T19:34:27;15.40;99.90
4985;DHT22;2509;49.902;8.600;2023-04-21T19:37:29;15.30;99.90
4985;DHT22;2509;49.902;8.600;2023-04-21T19:40:32;15.30;99.90
4985;DHT22;2509;49.902;8.600;2023-04-21T19:43:34;15.20;99.90
4985;DHT22;2509;49.902;8.600;2023-04-21T19:46:36;15.10;99.90
4985;DHT22;2509;49.902;8.600;2023-04-21T19:49:40;15.00;99.90
4985;DHT22;2509;49.902;8.600;2023-04-21T19:52:41;15.00;99.90
4985;DHT22;2509;49.902;8.600;2023-04-21T19:55:44;15.00;99.90
4985;DHT22;2509;49.902;8.600;2023-04-21T19:58:47;14.90;99.90